sensor_id;sensor_type;location;lat;lon;timestamp;temperature;humidity
25536;DHT22;13431;51.352;6.412;2023-03-01T00:01:23;-1.50;99.90
25536;DHT22;13431;51.352;6.412;2023-03-01T00:03:51;-1.40;99.90
25536;DHT22;13431;51.352;6.412;2023-03-01T00:06:20;-1.40;99.90
25536;DHT22;13431;51.352;6.412;2023-03-01T00:08:48;-1.40;99.90
25536;DHT22;13431;51.352;6.412;2023-03-01T00:11:24;-1.40;99.90
25536;DHT22;13431;51.352;6.412;2023-03-01T00:13:54;-1.40;99.90
25536;DHT22;13431;51.352;6.412;2023-03-01T00:16:28;-1.40;99.90
25536;DHT22;13431;51.352;6.412;2023-03-01T00:18:57;-1.40;99.90
25536;DHT22;13431;51.352;6.412;2023-03-01T00:21:26;-1.50;99.90
25536;DHT22;13431;51.352;6.412;2023-03-01T00:23:54;-1.50;99.90
25536;DHT22;13431;51.352;6.412;2023-03-01T00:26:23;-1.50;99.90
25536;DHT22;13431;51.352;6.412;2023-03-01T00:28:51;-1.50;99.90
25536;DHT22;13431;51.352;6.412;2023-03-01T00:31:21;-1.60;99.90
25536;DHT22;13431;51.352;6.412;2023-03-01T00:33:53;-1.60;99.90
25536;DHT22;13431;51.352;6.412;2023-03-01T00:36:29;-1.70;99.90
25536;DHT22;13431;51.352;6.412;2023-03-01T00:38:57;-1.80;99.90
25536;DHT22;13431;51.352;6.412;2023-03-01T00:41:26;-1.70;99.90
25536;DHT22;13431;51.352;6.412;2023-03-01T00:43:54;-1.80;99.90
25536;DHT22;13431;51.352;6.412;2023-03-01T00:46:24;-1.80;99.90
25536;DHT22;13431;51.352;6.412;2023-03-01T00:48:53;-1.80;99.90
25536;DHT22;13431;51.352;6.412;2023-03-01T00:51:26;-1.80;99.90
25536;DHT22;13431;51.352;6.412;2023-03-01T00:53:59;-1.80;99.90
25536;DHT22;13431;51.352;6.412;2023-03-01T00:56:27;-1.90;99.90
25536;DHT22;13431;51.352;6.412;2023-03-01T00:58:55;-1.90;99.90
25536;DHT22;13431;51.352;6.412;2023-03-01T01:01:28;-1.90;99.90
25536;DHT22;13431;51.352;6.412;2023-03-01T01:04:01;-1.90;99.90
25536;DHT22;13431;51.352;6.412;2023-03-01T01:06:33;-1.90;99.90
25536;DHT22;13431;51.352;6.412;2023-03-01T01:09:02;-1.90;99.90
25536;DHT22;13431;51.352;6.412;2023-03-01T01:11:30;-1.90;99.90
25536;DHT22;13431;51.352;6.412;2023-03-01T01:13:59;-2.00;99.90
25536;DHT22;13431;51.352;6.412;2023-03-01T01:16:28;-2.00;99.90
25536;DHT22;13431;51.352;6.412;2023-03-01T01:18:56;-2.00;99.90
25536;DHT22;13431;51.352;6.412;2023-03-01T01:21:24;-2.10;99.90
25536;DHT22;13431;51.352;6.412;2023-03-01T01:23:52;-2.10;99.90
25536;DHT22;13431;51.352;6.412;2023-03-01T01:26:28;-2.20;99.90
25536;DHT22;13431;51.352;6.412;2023-03-01T01:28:57;-2.20;99.90
25536;DHT22;13431;51.352;6.412;2023-03-01T01:31:26;-2.20;99.90
25536;DHT22;13431;51.352;6.412;2023-03-01T01:33:54;-2.30;99.90
25536;DHT22;13431;51.352;6.412;2023-03-01T01:36:22;-2.40;99.90
25536;DHT22;13431;51.352;6.412;2023-03-01T01:38:50;-2.30;99.90
25536;DHT22;13431;51.352;6.412;2023-03-01T01:41:18;-2.30;99.90
25536;DHT22;13431;51.352;6.412;2023-03-01T01:43:48;-2.40;99.90
25536;DHT22;13431;51.352;6.412;2023-03-01T01:46:31;-2.30;99.90
25536;DHT22;13431;51.352;6.412;2023-03-01T01:49:03;-2.30;99.90
25536;DHT22;13431;51.352;6.412;2023-03-01T01:51:38;-2.30;99.90
25536;DHT22;13431;51.352;6.412;2023-03-01T01:54:12;-2.30;99.90
25536;DHT22;13431;51.352;6.412;2023-03-01T01:56:42;-2.40;99.90
25536;DHT22;13431;51.352;6.412;2023-03-01T01:59:11;-2.40;99.90
25536;DHT22;13431;51.352;6.412;2023-03-01T02:01:39;-2.40;99.90
25536;DHT22;13431;51.352;6.412;2023-03-01T02:04:06;-2.50;99.90
25536;DHT22;13431;51.352;6.412;2023-03-01T02:06:39;-2.60;99.90
25536;DHT22;13431;51.352;6.412;2023-03-01T02:09:13;-2.50;99.90
25536;DHT22;13431;51.352;6.412;2023-03-01T02:11:43;-2.50;99.90
25536;DHT22;13431;51.352;6.412;2023-03-01T02:14:11;-2.50;99.90
25536;DHT22;13431;51.352;6.412;2023-03-01T02:16:38;-2.50;99.90
25536;DHT22;13431;51.352;6.412;2023-03-01T02:19:06;-2.50;99.90
25536;DHT22;13431;51.352;6.412;2023-03-01T02:21:46;-2.40;99.90
25536;DHT22;13431;51.352;6.412;2023-03-01T02:24:32;-2.40;99.90
25536;DHT22;13431;51.352;6.412;2023-03-01T02:27:02;-2.40;99.90
25536;DHT22;13431;51.352;6.412;2023-03-01T02:29:29;-2.40;99.90
25536;DHT22;13431;51.352;6.412;2023-03-01T02:32:00;-2.50;99.90
25536;DHT22;13431;51.352;6.412;2023-03-01T02:34:31;-2.50;99.90
25536;DHT22;13431;51.352;6.412;2023-03-01T02:37:10;-2.50;99.90
25536;DHT22;13431;51.352;6.412;2023-03-01T02:39:46;-2.70;99.90
25536;DHT22;13431;51.352;6.412;2023-03-01T02:42:18;-2.70;99.90
25536;DHT22;13431;51.352;6.412;2023-03-01T02:44:49;-2.80;99.90
25536;DHT22;13431;51.352;6.412;2023-03-01T02:47:16;-2.70;99.90
25536;DHT22;13431;51.352;6.412;2023-03-01T02:49:43;-2.60;99.90
25536;DHT22;13431;51.352;6.412;2023-03-01T02:54:56;-2.70;99.90
25536;DHT22;13431;51.352;6.412;2023-03-01T02:57:26;-2.70;99.90
25536;DHT22;13431;51.352;6.412;2023-03-01T02:59:56;-2.80;99.90
25536;DHT22;13431;51.352;6.412;2023-03-01T03:02:27;-2.80;99.90
25536;DHT22;13431;51.352;6.412;2023-03-01T03:05:12;-2.90;99.90
25536;DHT22;13431;51.352;6.412;2023-03-01T03:07:42;-3.00;99.90
25536;DHT22;13431;51.352;6.412;2023-03-01T03:10:23;-2.90;99.90
25536;DHT22;13431;51.352;6.412;2023-03-01T03:12:53;-2.70;99.90
25536;DHT22;13431;51.352;6.412;2023-03-01T03:15:21;-2.60;99.90
25536;DHT22;13431;51.352;6.412;2023-03-01T03:17:49;-2.60;99.90
25536;DHT22;13431;51.352;6.412;2023-03-01T03:20:19;-2.50;99.90
25536;DHT22;13431;51.352;6.412;2023-03-01T03:22:48;-2.50;99.90
25536;DHT22;13431;51.352;6.412;2023-03-01T03:25:17;-2.50;99.90
25536;DHT22;13431;51.352;6.412;2023-03-01T03:27:46;-2.70;99.90
25536;DHT22;13431;51.352;6.412;2023-03-01T03:30:16;-2.70;99.90
25536;DHT22;13431;51.352;6.412;2023-03-01T03:32:46;-2.60;99.90
25536;DHT22;13431;51.352;6.412;2023-03-01T03:35:46;-2.60;99.90
25536;DHT22;13431;51.352;6.412;2023-03-01T03:38:16;-2.70;99.90
25536;DHT22;13431;51.352;6.412;2023-03-01T03:40:51;-2.70;99.90
25536;DHT22;13431;51.352;6.412;2023-03-01T03:43:20;-2.70;99.90
25536;DHT22;13431;51.352;6.412;2023-03-01T03:45:50;-2.80;99.90
25536;DHT22;13431;51.352;6.412;2023-03-01T03:48:18;-2.80;99.90
25536;DHT22;13431;51.352;6.412;2023-03-01T03:50:50;-2.90;99.90
25536;DHT22;13431;51.352;6.412;2023-03-01T03:53:19;-2.90;99.90
25536;DHT22;13431;51.352;6.412;2023-03-01T03:55:46;-2.90;99.90
25536;DHT22;13431;51.352;6.412;2023-03-01T03:58:16;-2.90;99.90
25536;DHT22;13431;51.352;6.412;2023-03-01T04:00:53;-3.00;99.90
25536;DHT22;13431;51.352;6.412;2023-03-01T04:03:24;-3.00;99.90
25536;DHT22;13431;51.352;6.412;2023-03-01T04:05:52;-3.00;99.90
25536;DHT22;13431;51.352;6.412;2023-03-01T04:08:21;-3.00;99.90
25536;DHT22;13431;51.352;6.412;2023-03-01T04:10:51;-3.10;99.90
25536;DHT22;13431;51.352;6.412;2023-03-01T04:13:21;-3.20;99.90
25536;DHT22;13431;51.352;6.412;2023-03-01T04:15:50;-3.20;99.90
25536;DHT22;13431;51.352;6.412;2023-03-01T04:18:21;-3.20;99.90
25536;DHT22;13431;51.352;6.412;2023-03-01T04:20:50;-3.20;99.90
25536;DHT22;13431;51.352;6.412;2023-03-01T04:23:20;-3.20;99.90
25536;DHT22;13431;51.352;6.412;2023-03-01T04:25:49;-3.10;99.90
25536;DHT22;13431;51.352;6.412;2023-03-01T04:28:32;-3.20;99.90
25536;DHT22;13431;51.352;6.412;2023-03-01T04:31:20;-3.30;99.90
25536;DHT22;13431;51.352;6.412;2023-03-01T04:33:53;-3.40;99.90
25536;DHT22;13431;51.352;6.412;2023-03-01T04:36:24;-3.40;99.90
25536;DHT22;13431;51.352;6.412;2023-03-01T04:38:52;-3.40;99.90
25536;DHT22;13431;51.352;6.412;2023-03-01T04:41:22;-3.40;99.90
25536;DHT22;13431;51.352;6.412;2023-03-01T04:43:50;-3.30;99.90
25536;DHT22;13431;51.352;6.412;2023-03-01T04:46:19;-3.30;99.90
25536;DHT22;13431;51.352;6.412;2023-03-01T04:48:48;-3.30;99.90
25536;DHT22;13431;51.352;6.412;2023-03-01T04:51:15;-3.30;99.90
25536;DHT22;13431;51.352;6.412;2023-03-01T04:53:44;-3.30;99.90
25536;DHT22;13431;51.352;6.412;2023-03-01T04:56:12;-3.30;99.90
25536;DHT22;13431;51.352;6.412;2023-03-01T04:58:41;-3.30;99.90
25536;DHT22;13431;51.352;6.412;2023-03-01T05:01:14;-3.30;99.90
25536;DHT22;13431;51.352;6.412;2023-03-01T05:03:46;-3.30;99.90
25536;DHT22;13431;51.352;6.412;2023-03-01T05:06:14;-3.30;99.90
25536;DHT22;13431;51.352;6.412;2023-03-01T05:08:43;-3.30;99.90
25536;DHT22;13431;51.352;6.412;2023-03-01T05:11:11;-3.30;99.90
25536;DHT22;13431;51.352;6.412;2023-03-01T05:13:39;-3.30;99.90
25536;DHT22;13431;51.352;6.412;2023-03-01T05:16:08;-3.30;99.90
25536;DHT22;13431;51.352;6.412;2023-03-01T05:18:39;-3.30;99.90
25536;DHT22;13431;51.352;6.412;2023-03-01T05:21:09;-3.30;99.90
25536;DHT22;13431;51.352;6.412;2023-03-01T05:23:37;-3.40;99.90
25536;DHT22;13431;51.352;6.412;2023-03-01T05:26:06;-3.40;99.90
25536;DHT22;13431;51.352;6.412;2023-03-01T05:28:48;-3.40;99.90
25536;DHT22;13431;51.352;6.412;2023-03-01T05:31:15;-3.40;99.90
25536;DHT22;13431;51.352;6.412;2023-03-01T05:33:43;-3.40;99.90
25536;DHT22;13431;51.352;6.412;2023-03-01T05:36:10;-3.50;99.90
25536;DHT22;13431;51.352;6.412;2023-03-01T05:38:38;-3.60;99.90
25536;DHT22;13431;51.352;6.412;2023-03-01T05:41:05;-3.60;99.90
25536;DHT22;13431;51.352;6.412;2023-03-01T05:43:40;-3.60;99.90
25536;DHT22;13431;51.352;6.412;2023-03-01T05:46:10;-3.60;99.90
25536;DHT22;13431;51.352;6.412;2023-03-01T05:48:40;-3.70;99.90
25536;DHT22;13431;51.352;6.412;2023-03-01T05:51:08;-3.70;99.90
25536;DHT22;13431;51.352;6.412;2023-03-01T05:53:35;-3.70;99.90
25536;DHT22;13431;51.352;6.412;2023-03-01T05:56:03;-3.70;99.90
25536;DHT22;13431;51.352;6.412;2023-03-01T05:58:31;-3.60;99.90
25536;DHT22;13431;51.352;6.412;2023-03-01T06:00:59;-3.60;99.90
25536;DHT22;13431;51.352;6.412;2023-03-01T06:03:26;-3.70;99.90
25536;DHT22;13431;51.352;6.412;2023-03-01T06:05:57;-3.70;99.90
25536;DHT22;13431;51.352;6.412;2023-03-01T06:08:25;-3.70;99.90
25536;DHT22;13431;51.352;6.412;2023-03-01T06:10:54;-3.80;99.90
25536;DHT22;13431;51.352;6.412;2023-03-01T06:13:22;-3.70;99.90
25536;DHT22;13431;51.352;6.412;2023-03-01T06:15:50;-3.80;99.90
25536;DHT22;13431;51.352;6.412;2023-03-01T06:18:19;-3.80;99.90
25536;DHT22;13431;51.352;6.412;2023-03-01T06:20:53;-3.90;99.90
25536;DHT22;13431;51.352;6.412;2023-03-01T06:23:21;-3.90;99.90
25536;DHT22;13431;51.352;6.412;2023-03-01T06:25:49;-3.80;99.90
25536;DHT22;13431;51.352;6.412;2023-03-01T06:28:16;-3.80;99.90
25536;DHT22;13431;51.352;6.412;2023-03-01T06:30:44;-3.70;99.90
25536;DHT22;13431;51.352;6.412;2023-03-01T06:33:11;-3.80;99.90
25536;DHT22;13431;51.352;6.412;2023-03-01T06:35:39;-3.70;99.90
25536;DHT22;13431;51.352;6.412;2023-03-01T06:38:09;-3.60;99.90
25536;DHT22;13431;51.352;6.412;2023-03-01T06:40:36;-3.60;99.90
25536;DHT22;13431;51.352;6.412;2023-03-01T06:43:04;-3.60;99.90
25536;DHT22;13431;51.352;6.412;2023-03-01T06:45:31;-3.40;99.90
25536;DHT22;13431;51.352;6.412;2023-03-01T06:48:06;-2.30;99.90
25536;DHT22;13431;51.352;6.412;2023-03-01T06:50:35;-1.30;99.90
25536;DHT22;13431;51.352;6.412;2023-03-01T06:53:02;-0.80;99.90
25536;DHT22;13431;51.352;6.412;2023-03-01T06:55:30;-0.80;99.90
25536;DHT22;13431;51.352;6.412;2023-03-01T06:57:59;-1.10;99.90
25536;DHT22;13431;51.352;6.412;2023-03-01T07:00:27;-1.20;99.90
25536;DHT22;13431;51.352;6.412;2023-03-01T07:02:58;-1.40;99.90
25536;DHT22;13431;51.352;6.412;2023-03-01T07:05:26;-1.00;99.90
25536;DHT22;13431;51.352;6.412;2023-03-01T07:07:53;-0.10;99.90
25536;DHT22;13431;51.352;6.412;2023-03-01T07:10:22;0.60;99.90
25536;DHT22;13431;51.352;6.412;2023-03-01T07:12:50;1.60;99.90
25536;DHT22;13431;51.352;6.412;2023-03-01T07:15:17;2.80;99.90
25536;DHT22;13431;51.352;6.412;2023-03-01T07:17:44;3.60;99.90
25536;DHT22;13431;51.352;6.412;2023-03-01T07:20:14;3.60;99.90
25536;DHT22;13431;51.352;6.412;2023-03-01T07:22:42;4.00;99.90
25536;DHT22;13431;51.352;6.412;2023-03-01T07:25:10;4.20;99.90
25536;DHT22;13431;51.352;6.412;2023-03-01T07:27:38;4.40;99.90
25536;DHT22;13431;51.352;6.412;2023-03-01T07:30:05;4.40;99.90
25536;DHT22;13431;51.352;6.412;2023-03-01T07:32:33;4.10;99.90
25536;DHT22;13431;51.352;6.412;2023-03-01T07:35:01;3.80;99.90
25536;DHT22;13431;51.352;6.412;2023-03-01T07:37:28;3.20;99.90
25536;DHT22;13431;51.352;6.412;2023-03-01T07:39:55;2.20;99.90
25536;DHT22;13431;51.352;6.412;2023-03-01T07:42:22;1.80;99.90
25536;DHT22;13431;51.352;6.412;2023-03-01T07:44:50;1.60;99.90
25536;DHT22;13431;51.352;6.412;2023-03-01T07:47:17;1.60;99.90
25536;DHT22;13431;51.352;6.412;2023-03-01T07:49:44;2.20;99.90
25536;DHT22;13431;51.352;6.412;2023-03-01T07:52:12;2.60;99.90
25536;DHT22;13431;51.352;6.412;2023-03-01T07:54:42;3.10;99.90
25536;DHT22;13431;51.352;6.412;2023-03-01T07:57:10;3.70;99.90
25536;DHT22;13431;51.352;6.412;2023-03-01T07:59:37;2.70;99.90
25536;DHT22;13431;51.352;6.412;2023-03-01T08:02:05;3.00;99.90
25536;DHT22;13431;51.352;6.412;2023-03-01T08:04:33;4.10;99.90
25536;DHT22;13431;51.352;6.412;2023-03-01T08:07:00;5.40;99.90
25536;DHT22;13431;51.352;6.412;2023-03-01T08:09:27;5.80;96.60
25536;DHT22;13431;51.352;6.412;2023-03-01T08:11:57;5.80;96.50
25536;DHT22;13431;51.352;6.412;2023-03-01T08:14:26;5.00;96.90
25536;DHT22;13431;51.352;6.412;2023-03-01T08:16:54;4.30;99.90
25536;DHT22;13431;51.352;6.412;2023-03-01T08:19:22;4.20;99.90
25536;DHT22;13431;51.352;6.412;2023-03-01T08:21:49;3.40;99.90
25536;DHT22;13431;51.352;6.412;2023-03-01T08:24:16;3.60;99.90
25536;DHT22;13431;51.352;6.412;2023-03-01T08:26:44;4.90;99.90
25536;DHT22;13431;51.352;6.412;2023-03-01T08:29:11;5.80;97.20
25536;DHT22;13431;51.352;6.412;2023-03-01T08:31:40;6.80;92.80
25536;DHT22;13431;51.352;6.412;2023-03-01T08:34:11;7.90;88.20
25536;DHT22;13431;51.352;6.412;2023-03-01T08:36:41;8.40;78.80
25536;DHT22;13431;51.352;6.412;2023-03-01T08:39:11;9.20;76.10
25536;DHT22;13431;51.352;6.412;2023-03-01T08:41:40;10.30;68.50
25536;DHT22;13431;51.352;6.412;2023-03-01T08:44:08;10.90;60.50
25536;DHT22;13431;51.352;6.412;2023-03-01T08:46:38;11.50;55.60
25536;DHT22;13431;51.352;6.412;2023-03-01T08:49:08;11.70;52.90
25536;DHT22;13431;51.352;6.412;2023-03-01T08:51:35;11.40;49.80
25536;DHT22;13431;51.352;6.412;2023-03-01T08:54:13;11.80;50.50
25536;DHT22;13431;51.352;6.412;2023-03-01T08:56:42;11.70;48.60
25536;DHT22;13431;51.352;6.412;2023-03-01T08:59:11;11.00;47.90
25536;DHT22;13431;51.352;6.412;2023-03-01T09:01:39;11.40;48.20
25536;DHT22;13431;51.352;6.412;2023-03-01T09:04:07;11.60;47.40
25536;DHT22;13431;51.352;6.412;2023-03-01T09:06:34;12.20;45.90
25536;DHT22;13431;51.352;6.412;2023-03-01T09:09:03;12.20;46.00
25536;DHT22;13431;51.352;6.412;2023-03-01T09:11:31;12.30;44.50
25536;DHT22;13431;51.352;6.412;2023-03-01T09:13:58;12.40;43.80
25536;DHT22;13431;51.352;6.412;2023-03-01T09:16:25;13.00;43.20
25536;DHT22;13431;51.352;6.412;2023-03-01T09:18:54;12.90;41.90
25536;DHT22;13431;51.352;6.412;2023-03-01T09:21:22;12.50;39.60
25536;DHT22;13431;51.352;6.412;2023-03-01T09:24:13;12.70;40.50
25536;DHT22;13431;51.352;6.412;2023-03-01T09:26:42;11.00;39.60
25536;DHT22;13431;51.352;6.412;2023-03-01T09:29:09;11.50;40.70
25536;DHT22;13431;51.352;6.412;2023-03-01T09:31:37;12.50;39.70
25536;DHT22;13431;51.352;6.412;2023-03-01T09:34:05;13.00;40.00
25536;DHT22;13431;51.352;6.412;2023-03-01T09:36:33;13.00;38.10
25536;DHT22;13431;51.352;6.412;2023-03-01T09:39:02;12.60;38.40
25536;DHT22;13431;51.352;6.412;2023-03-01T09:44:43;11.90;37.30
25536;DHT22;13431;51.352;6.412;2023-03-01T09:49:49;12.80;37.70
25536;DHT22;13431;51.352;6.412;2023-03-01T09:54:58;12.50;36.80
25536;DHT22;13431;51.352;6.412;2023-03-01T10:00:18;12.00;35.30
25536;DHT22;13431;51.352;6.412;2023-03-01T10:02:51;13.20;35.70
25536;DHT22;13431;51.352;6.412;2023-03-01T10:08:26;13.80;33.00
25536;DHT22;13431;51.352;6.412;2023-03-01T10:10:57;14.50;33.10
25536;DHT22;13431;51.352;6.412;2023-03-01T10:19:05;14.00;31.70
25536;DHT22;13431;51.352;6.412;2023-03-01T10:21:40;15.20;30.00
25536;DHT22;13431;51.352;6.412;2023-03-01T10:24:12;15.00;29.10
25536;DHT22;13431;51.352;6.412;2023-03-01T10:26:57;15.00;29.30
25536;DHT22;13431;51.352;6.412;2023-03-01T10:29:42;15.30;29.00
25536;DHT22;13431;51.352;6.412;2023-03-01T10:32:11;15.40;27.80
25536;DHT22;13431;51.352;6.412;2023-03-01T10:34:39;14.90;26.10
25536;DHT22;13431;51.352;6.412;2023-03-01T10:42:34;14.30;26.70
25536;DHT22;13431;51.352;6.412;2023-03-01T10:50:31;13.40;28.10
25536;DHT22;13431;51.352;6.412;2023-03-01T10:53:03;13.60;27.80
25536;DHT22;13431;51.352;6.412;2023-03-01T10:55:36;14.30;28.40
25536;DHT22;13431;51.352;6.412;2023-03-01T10:58:08;14.00;26.40
25536;DHT22;13431;51.352;6.412;2023-03-01T11:00:50;12.90;27.60
25536;DHT22;13431;51.352;6.412;2023-03-01T11:03:22;11.00;29.40
25536;DHT22;13431;51.352;6.412;2023-03-01T11:16:27;5.90;51.00
25536;DHT22;13431;51.352;6.412;2023-03-01T11:21:51;5.50;56.50
25536;DHT22;13431;51.352;6.412;2023-03-01T11:24:30;5.60;58.90
25536;DHT22;13431;51.352;6.412;2023-03-01T11:27:03;5.50;59.10
25536;DHT22;13431;51.352;6.412;2023-03-01T11:29:41;5.50;59.50
25536;DHT22;13431;51.352;6.412;2023-03-01T11:32:15;5.50;61.30
25536;DHT22;13431;51.352;6.412;2023-03-01T11:40:34;5.50;61.70
25536;DHT22;13431;51.352;6.412;2023-03-01T11:54:23;5.50;62.50
25536;DHT22;13431;51.352;6.412;2023-03-01T12:05:00;5.50;58.10
25536;DHT22;13431;51.352;6.412;2023-03-01T12:08:14;5.70;58.60
25536;DHT22;13431;51.352;6.412;2023-03-01T12:10:54;5.60;58.00
25536;DHT22;13431;51.352;6.412;2023-03-01T12:13:46;5.60;57.40
25536;DHT22;13431;51.352;6.412;2023-03-01T12:16:25;5.60;56.40
25536;DHT22;13431;51.352;6.412;2023-03-01T12:24:46;5.80;56.50
25536;DHT22;13431;51.352;6.412;2023-03-01T12:27:36;5.80;54.30
25536;DHT22;13431;51.352;6.412;2023-03-01T12:30:39;5.80;54.70
25536;DHT22;13431;51.352;6.412;2023-03-01T12:38:52;6.00;53.50
25536;DHT22;13431;51.352;6.412;2023-03-01T12:50:10;6.00;54.30
25536;DHT22;13431;51.352;6.412;2023-03-01T12:52:46;6.00;54.60
25536;DHT22;13431;51.352;6.412;2023-03-01T12:55:39;6.10;54.70
25536;DHT22;13431;51.352;6.412;2023-03-01T13:10:19;6.20;55.70
25536;DHT22;13431;51.352;6.412;2023-03-01T13:15:36;6.20;56.70
25536;DHT22;13431;51.352;6.412;2023-03-01T13:26:04;6.10;57.70
25536;DHT22;13431;51.352;6.412;2023-03-01T13:28:36;6.10;58.80
25536;DHT22;13431;51.352;6.412;2023-03-01T13:31:09;6.20;58.50
25536;DHT22;13431;51.352;6.412;2023-03-01T13:33:46;6.20;59.30
25536;DHT22;13431;51.352;6.412;2023-03-01T13:39:13;6.20;58.50
25536;DHT22;13431;51.352;6.412;2023-03-01T13:41:55;6.20;59.00
25536;DHT22;13431;51.352;6.412;2023-03-01T13:44:32;6.30;58.20
25536;DHT22;13431;51.352;6.412;2023-03-01T13:52:42;6.20;56.00
25536;DHT22;13431;51.352;6.412;2023-03-01T13:57:56;6.20;55.60
25536;DHT22;13431;51.352;6.412;2023-03-01T14:03:16;6.20;56.60
25536;DHT22;13431;51.352;6.412;2023-03-01T14:06:05;6.20;58.60
25536;DHT22;13431;51.352;6.412;2023-03-01T14:08:45;6.20;58.00
25536;DHT22;13431;51.352;6.412;2023-03-01T14:20:21;6.30;57.90
25536;DHT22;13431;51.352;6.412;2023-03-01T14:22:52;6.30;59.40
25536;DHT22;13431;51.352;6.412;2023-03-01T14:25:22;6.40;58.30
25536;DHT22;13431;51.352;6.412;2023-03-01T14:28:02;6.40;57.10
25536;DHT22;13431;51.352;6.412;2023-03-01T14:30:33;6.30;57.20
25536;DHT22;13431;51.352;6.412;2023-03-01T14:33:05;6.30;57.50
25536;DHT22;13431;51.352;6.412;2023-03-01T14:35:35;6.30;58.10
25536;DHT22;13431;51.352;6.412;2023-03-01T14:38:03;6.30;57.60
25536;DHT22;13431;51.352;6.412;2023-03-01T14:40:34;6.30;57.10
25536;DHT22;13431;51.352;6.412;2023-03-01T14:43:09;6.30;57.80
25536;DHT22;13431;51.352;6.412;2023-03-01T14:45:38;6.30;58.20
25536;DHT22;13431;51.352;6.412;2023-03-01T14:48:07;6.30;59.10
25536;DHT22;13431;51.352;6.412;2023-03-01T14:50:35;6.30;59.20
25536;DHT22;13431;51.352;6.412;2023-03-01T14:53:07;6.40;57.90
25536;DHT22;13431;51.352;6.412;2023-03-01T14:55:46;6.30;58.10
25536;DHT22;13431;51.352;6.412;2023-03-01T14:58:17;6.30;58.60
25536;DHT22;13431;51.352;6.412;2023-03-01T15:00:54;6.40;58.70
25536;DHT22;13431;51.352;6.412;2023-03-01T15:03:43;6.30;57.00
25536;DHT22;13431;51.352;6.412;2023-03-01T15:06:14;6.30;57.90
25536;DHT22;13431;51.352;6.412;2023-03-01T15:08:44;6.30;58.40
25536;DHT22;13431;51.352;6.412;2023-03-01T15:13:50;6.30;56.50
25536;DHT22;13431;51.352;6.412;2023-03-01T15:16:19;6.30;55.80
25536;DHT22;13431;51.352;6.412;2023-03-01T15:19:07;6.30;57.20
25536;DHT22;13431;51.352;6.412;2023-03-01T15:21:38;6.20;57.30
25536;DHT22;13431;51.352;6.412;2023-03-01T15:26:37;6.20;58.30
25536;DHT22;13431;51.352;6.412;2023-03-01T15:29:16;6.20;56.80
25536;DHT22;13431;51.352;6.412;2023-03-01T15:32:00;6.20;56.20
25536;DHT22;13431;51.352;6.412;2023-03-01T15:34:33;6.10;56.80
25536;DHT22;13431;51.352;6.412;2023-03-01T15:37:03;6.30;56.70
25536;DHT22;13431;51.352;6.412;2023-03-01T15:39:41;6.10;56.90
25536;DHT22;13431;51.352;6.412;2023-03-01T15:47:49;6.10;56.90
25536;DHT22;13431;51.352;6.412;2023-03-01T15:50:26;6.10;55.40
25536;DHT22;13431;51.352;6.412;2023-03-01T15:52:55;6.10;54.60
25536;DHT22;13431;51.352;6.412;2023-03-01T15:55:27;6.00;55.30
25536;DHT22;13431;51.352;6.412;2023-03-01T15:58:10;6.10;55.30
25536;DHT22;13431;51.352;6.412;2023-03-01T16:00:39;6.00;55.40
25536;DHT22;13431;51.352;6.412;2023-03-01T16:03:24;6.00;55.00
25536;DHT22;13431;51.352;6.412;2023-03-01T16:05:51;5.90;54.90
25536;DHT22;13431;51.352;6.412;2023-03-01T16:08:19;5.80;55.40
25536;DHT22;13431;51.352;6.412;2023-03-01T16:10:46;5.70;55.70
25536;DHT22;13431;51.352;6.412;2023-03-01T16:13:16;5.70;55.70
25536;DHT22;13431;51.352;6.412;2023-03-01T16:15:44;5.70;55.00
25536;DHT22;13431;51.352;6.412;2023-03-01T16:18:12;5.60;56.40
25536;DHT22;13431;51.352;6.412;2023-03-01T16:20:39;5.50;57.10
25536;DHT22;13431;51.352;6.412;2023-03-01T16:23:08;5.60;58.30
25536;DHT22;13431;51.352;6.412;2023-03-01T16:25:37;5.40;59.30
25536;DHT22;13431;51.352;6.412;2023-03-01T16:28:05;5.30;59.40
25536;DHT22;13431;51.352;6.412;2023-03-01T16:30:37;5.30;59.10
25536;DHT22;13431;51.352;6.412;2023-03-01T16:33:05;5.30;59.40
25536;DHT22;13431;51.352;6.412;2023-03-01T16:35:51;5.30;59.40
25536;DHT22;13431;51.352;6.412;2023-03-01T16:38:18;5.30;58.90
25536;DHT22;13431;51.352;6.412;2023-03-01T16:40:48;5.30;59.50
25536;DHT22;13431;51.352;6.412;2023-03-01T16:43:16;5.10;60.20
25536;DHT22;13431;51.352;6.412;2023-03-01T16:45:43;5.00;60.70
25536;DHT22;13431;51.352;6.412;2023-03-01T16:48:12;4.90;62.00
25536;DHT22;13431;51.352;6.412;2023-03-01T16:50:39;4.80;63.20
25536;DHT22;13431;51.352;6.412;2023-03-01T16:53:07;4.80;63.50
25536;DHT22;13431;51.352;6.412;2023-03-01T16:55:34;4.70;63.40
25536;DHT22;13431;51.352;6.412;2023-03-01T16:58:02;4.70;64.30
25536;DHT22;13431;51.352;6.412;2023-03-01T17:00:29;4.70;64.00
25536;DHT22;13431;51.352;6.412;2023-03-01T17:02:56;4.70;64.90
25536;DHT22;13431;51.352;6.412;2023-03-01T17:05:24;4.50;66.70
25536;DHT22;13431;51.352;6.412;2023-03-01T17:07:52;4.30;68.90
25536;DHT22;13431;51.352;6.412;2023-03-01T17:10:22;4.20;72.50
25536;DHT22;13431;51.352;6.412;2023-03-01T17:12:50;4.10;75.10
25536;DHT22;13431;51.352;6.412;2023-03-01T17:15:17;3.90;77.90
25536;DHT22;13431;51.352;6.412;2023-03-01T17:17:45;3.90;78.70
25536;DHT22;13431;51.352;6.412;2023-03-01T17:20:14;4.00;78.70
25536;DHT22;13431;51.352;6.412;2023-03-01T17:22:41;3.90;79.70
25536;DHT22;13431;51.352;6.412;2023-03-01T17:25:09;3.80;82.30
25536;DHT22;13431;51.352;6.412;2023-03-01T17:27:38;3.70;86.30
25536;DHT22;13431;51.352;6.412;2023-03-01T17:30:08;3.70;89.50
25536;DHT22;13431;51.352;6.412;2023-03-01T17:32:39;3.60;91.00
25536;DHT22;13431;51.352;6.412;2023-03-01T17:35:07;3.70;91.70
25536;DHT22;13431;51.352;6.412;2023-03-01T17:37:34;3.50;92.90
25536;DHT22;13431;51.352;6.412;2023-03-01T17:40:03;3.70;92.40
25536;DHT22;13431;51.352;6.412;2023-03-01T17:42:31;3.60;93.10
25536;DHT22;13431;51.352;6.412;2023-03-01T17:44:58;3.40;94.50
25536;DHT22;13431;51.352;6.412;2023-03-01T17:47:26;3.50;94.40
25536;DHT22;13431;51.352;6.412;2023-03-01T17:49:54;3.40;95.20
25536;DHT22;13431;51.352;6.412;2023-03-01T17:52:21;3.30;96.50
25536;DHT22;13431;51.352;6.412;2023-03-01T17:54:50;3.20;97.60
25536;DHT22;13431;51.352;6.412;2023-03-01T17:57:17;3.00;99.70
25536;DHT22;13431;51.352;6.412;2023-03-01T17:59:44;3.00;99.90
25536;DHT22;13431;51.352;6.412;2023-03-01T18:02:12;3.00;99.90
25536;DHT22;13431;51.352;6.412;2023-03-01T18:04:39;2.90;99.90
25536;DHT22;13431;51.352;6.412;2023-03-01T18:07:07;3.00;99.90
25536;DHT22;13431;51.352;6.412;2023-03-01T18:09:34;3.00;99.90
25536;DHT22;13431;51.352;6.412;2023-03-01T18:12:01;3.10;99.90
25536;DHT22;13431;51.352;6.412;2023-03-01T18:14:29;3.00;99.90
25536;DHT22;13431;51.352;6.412;2023-03-01T18:17:00;2.90;99.90
25536;DHT22;13431;51.352;6.412;2023-03-01T18:19:30;2.80;99.90
25536;DHT22;13431;51.352;6.412;2023-03-01T18:21:57;2.70;99.90
25536;DHT22;13431;51.352;6.412;2023-03-01T18:24:24;2.60;99.90
25536;DHT22;13431;51.352;6.412;2023-03-01T18:26:52;2.60;99.90
25536;DHT22;13431;51.352;6.412;2023-03-01T18:29:19;2.60;99.90